Time;durP1;ratioP1;P1;durP2;ratioP2;P2;SDS_P1;SDS_P2;PMS_P1;PMS_P2;Temp;Humidity;BMP_temperature;BMP_pressure;BME280_temperature;BME280_humidity;BME280_pressure;Samples;Min_cycle;Max_cycle;Signal;HPM_P1;HPM_P2
2022/06/27 00:01:05;;;;;;;;;1.00;1.00;;;;;20.19;84.23;101186.84;5087904;27;45345;-81
2022/06/27 00:03:31;;;;;;;;;4.25;3.25;;;;;20.12;83.99;101179.75;5077906;28;45315;-82
2022/06/27 00:05:57;;;;;;;;;2.00;2.00;;;;;20.10;84.33;101170.09;5076267;28;45527;-81
2022/06/27 00:08:22;;;;;;;;;1.00;0.00;;;;;20.09;84.80;101168.34;5075750;28;45963;-82
2022/06/27 00:10:48;;;;;;;;;3.25;2.75;;;;;20.07;85.00;101164.78;5076315;27;45289;-81
2022/06/27 00:13:14;;;;;;;;;5.00;4.00;;;;;20.00;85.22;101155.09;5076907;28;45352;-81
2022/06/27 00:15:40;;;;;;;;;2.00;2.00;;;;;20.10;85.06;101180.59;5058770;28;45553;-81
2022/06/27 00:18:06;;;;;;;;;5.00;3.00;;;;;19.99;85.68;101162.94;5092558;27;45252;-82
2022/06/27 00:20:32;;;;;;;;;2.75;2.75;;;;;20.02;85.24;101171.75;5096645;27;45772;-82
2022/06/27 00:22:57;;;;;;;;;2.00;2.00;;;;;19.99;85.67;101163.84;5080582;27;45467;-82
2022/06/27 00:25:23;;;;;;;;;1.75;1.00;;;;;20.04;85.67;101177.91;5076158;28;45344;-82
2022/06/27 00:27:48;;;;;;;;;1.75;1.75;;;;;20.03;85.74;101175.25;5075744;28;46189;-82
2022/06/27 00:30:14;;;;;;;;;2.50;2.00;;;;;20.05;85.87;101181.41;5075549;28;45325;-81
2022/06/27 00:32:40;;;;;;;;;3.00;2.00;;;;;19.95;86.46;101160.28;5075502;28;45424;-82
2022/06/27 00:35:07;;;;;;;;;2.00;2.00;;;;;20.04;86.32;101172.63;5075609;28;45557;-82
2022/06/27 00:37:32;;;;;;;;;2.75;1.50;;;;;20.00;85.90;101154.19;5057387;28;46444;-81
2022/06/27 00:39:58;;;;;;;;;3.25;2.25;;;;;19.93;86.24;101145.34;5075573;27;45182;-82
2022/06/27 00:42:24;;;;;;;;;5.00;2.00;;;;;20.03;86.23;101162.13;5062959;28;45380;-82
2022/06/27 00:44:49;;;;;;;;;2.75;2.25;;;;;20.03;85.91;101157.72;5086275;28;45166;-82
2022/06/27 00:47:16;;;;;;;;;3.00;1.25;;;;;20.03;86.15;101157.72;5081579;27;45502;-82
2022/06/27 00:49:42;;;;;;;;;5.00;1.75;;;;;19.95;86.57;101159.41;5062516;27;46052;-82
2022/06/27 00:52:11;;;;;;;;;2.00;2.00;;;;;20.01;86.36;101177.88;5079590;27;45296;-82
2022/06/27 00:54:39;;;;;;;;;1.00;1.00;;;;;19.97;86.45;101168.19;5079015;27;45469;-81
2022/06/27 00:57:05;;;;;;;;;4.75;3.25;;;;;19.93;86.52;101172.53;5078701;27;45351;-82
2022/06/27 00:59:31;;;;;;;;;4.00;2.25;;;;;19.97;86.30;101170.81;5076550;27;45346;-82
2022/06/27 01:01:57;;;;;;;;;2.00;2.00;;;;;19.93;86.21;101175.16;5064515;27;45456;-81
2022/06/27 01:04:23;;;;;;;;;1.00;1.00;;;;;19.89;87.47;101189.09;5078993;28;45504;-82
2022/06/27 01:06:51;;;;;;;;;1.25;1.25;;;;;19.86;87.03;101190.81;5078561;27;46410;-81
2022/06/27 01:09:19;;;;;;;;;2.25;2.25;;;;;19.78;87.92;101186.34;5079275;27;45442;-82
2022/06/27 01:11:45;;;;;;;;;2.50;2.50;;;;;19.70;88.46;101177.47;5096229;27;45537;-82
2022/06/27 01:14:12;;;;;;;;;3.00;2.00;;;;;19.83;88.39;101193.38;5080680;27;45448;-82
2022/06/27 01:16:39;;;;;;;;;4.50;2.25;;;;;19.84;88.09;101195.13;5067248;27;46686;-82
2022/06/27 01:19:11;;;;;;;;;3.00;2.00;;;;;19.84;89.02;101195.13;5078967;27;45773;-81
2022/06/27 01:21:44;;;;;;;;;2.75;2.00;;;;;19.79;88.78;101184.56;5079312;27;45500;-82
2022/06/27 01:24:10;;;;;;;;;2.00;2.00;;;;;19.83;89.11;101182.84;5080600;27;45307;-82
2022/06/27 01:26:36;;;;;;;;;6.00;4.00;;;;;19.86;89.14;101188.19;5090436;27;45544;-82
2022/06/27 01:29:02;;;;;;;;;2.00;2.00;;;;;19.79;89.12;101187.19;5084243;28;45536;-83
2022/06/27 01:31:29;;;;;;;;;3.00;2.00;;;;;19.79;88.71;101171.44;5095333;27;45437;-83
2022/06/27 01:33:55;;;;;;;;;1.50;1.50;;;;;19.86;88.73;101178.59;5102899;27;45591;-82
2022/06/27 01:39:05;;;;;;;;;3.50;1.50;;;;;19.80;88.45;101174.09;5089547;27;45492;-83
2022/06/27 01:41:30;;;;;;;;;3.00;3.00;;;;;19.87;87.92;101188.19;5082464;27;45402;-83
2022/06/27 01:43:56;;;;;;;;;2.00;2.00;;;;;19.80;88.14;101179.34;5099175;27;45509;-83
2022/06/27 01:46:22;;;;;;;;;2.50;2.00;;;;;19.85;87.91;101189.03;5096361;27;46169;-83
2022/06/27 01:48:48;;;;;;;;;3.25;2.50;;;;;19.79;87.34;101190.72;5097184;27;45472;-83
2022/06/27 01:51:14;;;;;;;;;2.25;1.75;;;;;19.83;87.18;101194.28;5083946;27;45243;-83
2022/06/27 01:53:40;;;;;;;;;2.00;2.00;;;;;19.75;87.53;101181.03;5078918;28;45523;-83
2022/06/27 01:56:06;;;;;;;;;2.75;2.00;;;;;19.77;87.72;101179.31;5090708;27;46006;-82
2022/06/27 01:58:33;;;;;;;;;3.00;2.00;;;;;19.75;87.96;101175.78;5080637;27;45212;-82
2022/06/27 02:00:59;;;;;;;;;4.50;2.75;;;;;19.72;87.50;101170.47;5101830;27;45640;-82
2022/06/27 02:03:25;;;;;;;;;5.00;3.25;;;;;19.81;87.48;101174.97;5081401;27;45316;-81
2022/06/27 02:05:52;;;;;;;;;4.25;3.00;;;;;19.79;88.65;101176.69;5077886;27;45391;-81
2022/06/27 02:08:22;;;;;;;;;2.00;2.00;;;;;19.76;87.73;101166.16;5080771;27;45248;-81
2022/06/27 02:10:48;;;;;;;;;3.00;3.00;;;;;19.77;87.89;101168.78;5077622;28;45569;-80
2022/06/27 02:13:14;;;;;;;;;3.00;2.00;;;;;19.75;87.81;101164.41;5077859;27;45323;-80
2022/06/27 02:16:06;;;;;;;;;4.00;3.00;;;;;19.79;87.44;101169.72;5082752;27;45965;-80
2022/06/27 02:18:33;;;;;;;;;1.75;1.75;;;;;19.79;88.18;101172.34;5072011;27;45753;-81
2022/06/27 02:20:59;;;;;;;;;3.25;2.25;;;;;19.79;88.06;101153.94;5081228;27;45641;-80
2022/06/27 02:23:25;;;;;;;;;4.00;2.50;;;;;19.77;88.24;101163.53;5079846;27;45361;-80
2022/06/27 02:25:52;;;;;;;;;4.00;2.75;;;;;19.73;88.24;101164.34;5081463;27;46650;-81
2022/06/27 02:28:19;;;;;;;;;2.00;2.00;;;;;19.69;88.19;101180.06;5077439;27;45652;-82
2022/06/27 02:30:45;;;;;;;;;2.00;2.00;;;;;19.64;89.67;101172.13;5077352;27;45351;-81
2022/06/27 02:33:11;;;;;;;;;2.75;2.00;;;;;19.64;89.32;101180.00;5092005;27;45215;-81
2022/06/27 02:35:42;;;;;;;;;0.50;0.50;;;;;19.62;88.91;101197.47;5097221;27;45591;-82
2022/06/27 02:38:10;;;;;;;;;1.50;1.50;;;;;19.61;89.61;101195.72;5092229;27;45497;-81
2022/06/27 02:40:38;;;;;;;;;2.00;2.00;;;;;19.58;89.94;101180.81;5086449;27;45212;-81
2022/06/27 02:43:06;;;;;;;;;2.00;2.00;;;;;19.60;89.71;101186.06;5097958;27;45268;-82
2022/06/27 02:45:33;;;;;;;;;2.50;2.50;;;;;19.63;89.57;101179.13;5097892;27;45382;-81
2022/06/27 02:48:01;;;;;;;;;2.75;1.75;;;;;19.61;89.22;101182.59;5059381;27;45378;-81
2022/06/27 02:50:27;;;;;;;;;2.50;2.00;;;;;19.67;88.15;101198.44;5077058;27;45698;-80
2022/06/27 02:52:56;;;;;;;;;4.75;2.00;;;;;19.69;87.75;101198.44;5077272;27;45564;-81
2022/06/27 02:55:31;;;;;;;;;2.00;2.00;;;;;19.71;87.97;101194.09;5089090;27;46076;-81
2022/06/27 02:58:23;;;;;;;;;3.25;2.75;;;;;19.66;87.07;101186.16;5097385;27;45726;-82
2022/06/27 03:00:50;;;;;;;;;1.00;1.00;;;;;19.68;88.17;101188.81;5078129;27;45415;-81
2022/06/27 03:03:16;;;;;;;;;1.25;1.25;;;;;19.70;87.68;101184.47;5097679;27;45557;-82
2022/06/27 03:06:00;;;;;;;;;2.00;2.00;;;;;19.74;87.78;101199.41;5090718;27;46133;-82
2022/06/27 03:08:35;;;;;;;;;2.00;2.00;;;;;19.73;87.69;101192.38;5097525;27;45994;-82
2022/06/27 03:11:01;;;;;;;;;2.50;1.75;;;;;19.77;87.78;101189.81;5092855;27;45398;-82
2022/06/27 03:13:26;;;;;;;;;2.75;2.00;;;;;19.77;87.21;101184.56;5080710;27;45410;-81
2022/06/27 03:15:52;;;;;;;;;1.00;1.00;;;;;19.78;87.51;101199.47;5076561;28;46286;-80
2022/06/27 03:18:17;;;;;;;;;2.75;1.50;;;;;19.72;87.50;101180.97;5091748;27;45530;-81
2022/06/27 03:20:43;;;;;;;;;3.25;3.00;;;;;19.72;88.43;101182.75;5086891;27;45606;-81
2022/06/27 03:23:09;;;;;;;;;1.00;1.00;;;;;19.71;88.05;101184.47;5058649;28;45257;-81
2022/06/27 03:25:34;;;;;;;;;2.00;2.00;;;;;19.64;88.43;101178.28;5082032;27;45785;-81
2022/06/27 03:28:00;;;;;;;;;2.75;1.25;;;;;19.72;89.26;101190.63;5077956;27;45421;-81
2022/06/27 03:30:25;;;;;;;;;2.50;1.25;;;;;19.70;88.68;101173.94;5087684;27;45268;-81
2022/06/27 03:32:51;;;;;;;;;3.75;2.75;;;;;19.74;88.70;101179.25;5058654;28;45532;-81
2022/06/27 03:35:17;;;;;;;;;2.00;2.00;;;;;19.71;88.54;101183.59;5088329;27;45937;-81
2022/06/27 03:37:42;;;;;;;;;3.50;3.50;;;;;19.72;88.90;101196.75;5087441;27;45752;-81
2022/06/27 03:40:09;;;;;;;;;5.50;2.75;;;;;19.70;89.99;101172.22;5076432;27;45753;-80
2022/06/27 03:42:34;;;;;;;;;2.25;2.25;;;;;19.73;89.58;101177.50;5091990;27;45652;-80
2022/06/27 03:45:00;;;;;;;;;3.00;2.50;;;;;19.70;89.50;101161.72;5076743;27;46088;-80
2022/06/27 03:47:25;;;;;;;;;3.25;3.25;;;;;19.75;89.66;101165.25;5076144;28;45526;-80
2022/06/27 03:50:00;;;;;;;;;3.50;2.50;;;;;19.76;90.28;101174.91;5067484;28;45321;-80
2022/06/27 03:52:25;;;;;;;;;4.50;2.00;;;;;19.75;89.84;101167.03;5083271;28;45526;-81
2022/06/27 03:54:51;;;;;;;;;4.00;2.25;;;;;19.71;90.47;101166.06;5081999;28;45419;-81
2022/06/27 03:57:16;;;;;;;;;3.00;3.00;;;;;19.74;90.33;101174.00;5096938;27;45341;-81
2022/06/27 03:59:42;;;;;;;;;2.50;2.50;;;;;19.73;90.04;101176.63;5096887;27;45264;-81
2022/06/27 04:02:09;;;;;;;;;5.75;2.25;;;;;19.73;88.93;101176.63;5061255;28;45359;-81
2022/06/27 04:04:35;;;;;;;;;2.50;2.50;;;;;19.71;89.10;101187.09;5095491;27;45491;-80
2022/06/27 04:07:02;;;;;;;;;4.25;1.50;;;;;19.70;88.59;101200.22;5101734;27;45794;-82
2022/06/27 04:09:29;;;;;;;;;5.00;3.50;;;;;19.64;89.38;101194.03;5078214;27;45380;-82
2022/06/27 04:11:54;;;;;;;;;2.00;2.00;;;;;19.52;89.45;101171.94;5077607;27;45467;-82
2022/06/27 04:14:20;;;;;;;;;2.00;2.00;;;;;19.54;88.95;101192.16;5076825;27;45846;-81
2022/06/27 04:16:46;;;;;;;;;2.50;2.50;;;;;19.56;89.88;101202.66;5077932;27;45488;-81
2022/06/27 04:19:12;;;;;;;;;4.25;3.00;;;;;19.62;89.85;101208.00;5087400;27;45269;-81
2022/06/27 04:21:38;;;;;;;;;3.50;2.00;;;;;19.55;89.74;101190.38;5081191;27;45477;-81
2022/06/27 04:24:04;;;;;;;;;2.00;2.00;;;;;19.65;89.21;101218.53;5092057;27;46249;-81
2022/06/27 04:26:29;;;;;;;;;1.50;1.50;;;;;19.65;89.66;101234.31;5079415;28;45185;-81
2022/06/27 04:28:55;;;;;;;;;3.00;2.00;;;;;19.56;89.32;101219.28;5069092;28;45285;-82
2022/06/27 04:31:21;;;;;;;;;1.00;1.00;;;;;19.63;89.07;101218.53;5085023;27;45457;-82
2022/06/27 04:33:47;;;;;;;;;2.00;2.00;;;;;19.62;89.22;101229.00;5098233;27;46071;-81
2022/06/27 04:36:13;;;;;;;;;1.00;1.00;;;;;19.65;89.49;101240.44;5101586;27;45486;-81
2022/06/27 04:38:39;;;;;;;;;1.75;1.50;;;;;19.63;88.99;101247.44;5101254;27;45360;-82
2022/06/27 04:41:05;;;;;;;;;3.00;2.00;;;;;19.66;89.32;101259.72;5078680;27;45326;-81
2022/06/27 04:43:34;;;;;;;;;3.25;2.00;;;;;19.60;89.52;101246.47;5081489;28;45565;-82
2022/06/27 04:46:02;;;;;;;;;2.25;2.00;;;;;19.67;89.29;101256.22;5094845;27;45747;-81
2022/06/27 04:48:29;;;;;;;;;3.25;2.00;;;;;19.63;88.24;101249.16;5098544;27;45431;-82
2022/06/27 04:50:57;;;;;;;;;3.25;1.75;;;;;19.67;88.03;101250.97;5066645;28;45573;-82
2022/06/27 04:53:22;;;;;;;;;1.25;1.25;;;;;19.67;88.34;101240.47;5066757;27;45287;-82
2022/06/27 04:55:49;;;;;;;;;4.50;2.00;;;;;19.60;88.18;101228.09;5092204;27;45267;-82
2022/06/27 04:58:15;;;;;;;;;4.00;2.00;;;;;19.62;88.10;101221.13;5099568;27;45338;-81
2022/06/27 05:00:41;;;;;;;;;1.25;1.25;;;;;19.68;87.72;101225.56;5097313;27;45581;-80
2022/06/27 05:03:08;;;;;;;;;4.00;3.00;;;;;19.74;87.03;101238.81;5094015;27;45437;-81
2022/06/27 05:05:33;;;;;;;;;2.00;2.00;;;;;19.67;86.53;101222.09;5080628;27;45471;-81
2022/06/27 05:08:00;;;;;;;;;3.00;3.00;;;;;19.69;86.32;101208.97;5089532;27;45264;-81
2022/06/27 05:10:26;;;;;;;;;2.00;1.00;;;;;19.77;86.12;101207.31;5080072;27;45639;-82
2022/06/27 05:12:52;;;;;;;;;2.00;2.00;;;;;19.83;85.89;101212.66;5078919;28;45315;-81
2022/06/27 05:15:18;;;;;;;;;2.00;2.00;;;;;19.82;85.91;101207.38;5078013;27;45268;-81
2022/06/27 05:17:43;;;;;;;;;3.00;2.00;;;;;19.76;85.41;101209.06;5079129;27;45240;-80
2022/06/27 05:20:10;;;;;;;;;2.50;1.75;;;;;19.81;85.13;101214.38;5086568;27;45410;-80
2022/06/27 05:22:35;;;;;;;;;3.00;3.00;;;;;19.73;85.84;101195.88;5075527;27;46485;-80
2022/06/27 05:25:01;;;;;;;;;6.00;2.00;;;;;19.84;85.98;101210.91;5068875;27;45548;-80
2022/06/27 05:27:27;;;;;;;;;2.00;2.00;;;;;19.84;86.40;101218.78;5080712;27;45398;-81
2022/06/27 05:29:53;;;;;;;;;2.00;2.00;;;;;19.89;86.29;101225.91;5077530;28;46986;-81
2022/06/27 05:32:19;;;;;;;;;4.00;2.00;;;;;19.91;86.29;101208.41;5059531;28;47901;-81
2022/06/27 05:34:44;;;;;;;;;2.50;2.25;;;;;19.86;85.73;101210.13;5071350;27;45355;-81
2022/06/27 05:37:10;;;;;;;;;1.25;1.25;;;;;19.83;86.06;101220.53;5078514;27;45467;-81
2022/06/27 05:39:36;;;;;;;;;1.25;1.00;;;;;19.92;86.41;101238.22;5078895;27;45596;-82
2022/06/27 05:42:03;;;;;;;;;2.50;2.25;;;;;19.94;86.44;101236.47;5050837;28;47679;-82
2022/06/27 05:44:29;;;;;;;;;2.00;2.00;;;;;19.78;86.02;101209.97;5058603;28;45202;-82
2022/06/27 05:46:56;;;;;;;;;2.00;2.00;;;;;19.85;86.27;101226.72;5058642;28;45292;-83
2022/06/27 05:49:24;;;;;;;;;3.00;2.00;;;;;19.79;86.68;101229.22;5057234;28;45317;-82
2022/06/27 05:51:52;;;;;;;;;2.00;1.00;;;;;19.77;86.74;101250.25;5066174;28;45744;-82
2022/06/27 05:54:18;;;;;;;;;5.00;3.75;;;;;19.76;86.89;101244.97;5084841;27;45271;-84
2022/06/27 05:56:44;;;;;;;;;2.25;2.25;;;;;19.67;86.95;101231.69;5102862;27;45165;-85
2022/06/27 05:59:10;;;;;;;;;2.75;2.00;;;;;19.72;86.56;101244.03;5101973;27;45186;-79
2022/06/27 06:01:37;;;;;;;;;2.00;2.00;;;;;19.78;86.60;101243.22;5098757;27;45235;-85
2022/06/27 06:04:05;;;;;;;;;3.00;1.75;;;;;19.69;86.40;101237.84;5081216;27;45667;-87
2022/06/27 06:06:31;;;;;;;;;2.50;2.00;;;;;19.75;86.38;101243.22;5104710;27;45422;-85
2022/06/27 06:08:57;;;;;;;;;2.00;2.00;;;;;19.70;86.50;101245.78;5083597;28;45392;-84
2022/06/27 06:11:24;;;;;;;;;3.00;2.25;;;;;19.76;86.96;101279.13;5086964;28;45344;-83
2022/06/27 06:13:52;;;;;;;;;3.75;1.50;;;;;19.68;87.19;101278.13;5083389;27;45680;-78
2022/06/27 06:16:19;;;;;;;;;2.75;2.00;;;;;19.68;86.88;101270.22;5058252;28;45400;-78
2022/06/27 06:18:59;;;;;;;;;3.50;2.75;;;;;19.76;86.91;101285.25;5059576;28;45413;-79
2022/06/27 06:21:25;;;;;;;;;1.50;1.00;;;;;19.79;86.95;101285.31;5076382;27;46197;-78
2022/06/27 06:23:52;;;;;;;;;2.50;2.50;;;;;19.79;86.92;101266.91;5081727;27;45670;-77
2022/06/27 06:26:19;;;;;;;;;2.00;2.00;;;;;19.74;86.65;101233.56;5077074;27;45461;-79
2022/06/27 06:28:47;;;;;;;;;2.00;2.00;;;;;19.76;87.10;101243.22;5065643;28;45608;-78
2022/06/27 06:31:21;;;;;;;;;3.00;2.75;;;;;19.92;87.57;101288.16;5055394;28;45337;-80
2022/06/27 06:33:50;;;;;;;;;2.00;2.00;;;;;19.84;87.00;101295.88;5053709;28;45416;-82
2022/06/27 06:36:18;;;;;;;;;4.00;2.25;;;;;19.82;86.33;101294.97;5055099;28;45366;-82
2022/06/27 06:38:44;;;;;;;;;3.50;2.75;;;;;19.85;86.96;101302.91;5060118;28;45364;-86
2022/06/27 06:41:10;;;;;;;;;2.75;2.25;;;;;19.84;87.35;101309.03;5077813;28;45406;-77
2022/06/27 06:43:36;;;;;;;;;4.50;2.00;;;;;19.87;87.98;101316.09;5081790;27;45703;-85
2022/06/27 06:46:02;;;;;;;;;3.25;2.00;;;;;19.85;87.77;101313.44;5089172;27;45487;-79
2022/06/27 06:48:27;;;;;;;;;3.00;3.00;;;;;19.82;88.45;101328.22;5087951;27;45601;-87
2022/06/27 06:50:54;;;;;;;;;2.00;2.00;;;;;19.78;88.70;101329.94;5098969;27;45651;-88
2022/06/27 06:53:21;;;;;;;;;4.00;3.00;;;;;19.82;89.65;101344.91;5072754;27;45700;-87
2022/06/27 06:55:48;;;;;;;;;1.50;1.50;;;;;19.86;89.02;101341.50;5064738;28;45850;-83
2022/06/27 06:58:14;;;;;;;;;3.75;2.50;;;;;19.91;88.69;101355.56;5079079;28;45418;-84
2022/06/27 07:00:39;;;;;;;;;2.00;2.00;;;;;19.98;88.37;101356.56;5082395;27;45520;-77
2022/06/27 07:03:07;;;;;;;;;2.00;2.00;;;;;19.97;87.94;101354.78;5063283;28;45553;-82
2022/06/27 07:05:34;;;;;;;;;4.75;2.00;;;;;20.07;87.70;101354.06;5080371;27;45324;-83
2022/06/27 07:08:01;;;;;;;;;3.00;3.00;;;;;20.14;86.76;101377.81;5082454;27;45541;-83
2022/06/27 07:10:28;;;;;;;;;3.00;2.75;;;;;20.14;87.30;101367.31;5079224;27;45937;-84
2022/06/27 07:12:54;;;;;;;;;4.25;3.00;;;;;20.16;87.51;101370.81;5082788;27;45891;-80
2022/06/27 07:15:20;;;;;;;;;4.25;3.00;;;;;20.13;87.59;101376.91;5081322;27;45474;-84
2022/06/27 07:17:49;;;;;;;;;3.50;3.00;;;;;20.16;86.50;101386.59;5077681;28;45454;-84
2022/06/27 07:20:20;;;;;;;;;2.00;2.00;;;;;20.16;86.01;101391.84;5087563;27;45682;-79
2022/06/27 07:22:50;;;;;;;;;4.50;4.50;;;;;20.10;85.00;101403.16;5098688;27;45366;-81
2022/06/27 07:25:17;;;;;;;;;3.00;2.00;;;;;19.98;86.38;101413.50;5097192;27;45274;-77
2022/06/27 07:27:43;;;;;;;;;4.25;3.25;;;;;19.88;86.59;101409.84;5097675;27;45238;-80
2022/06/27 07:30:11;;;;;;;;;2.50;2.50;;;;;19.76;87.67;101394.75;5086468;27;45947;-81
2022/06/27 07:32:41;;;;;;;;;5.25;3.75;;;;;19.80;88.21;101405.31;5085841;27;45528;-79
2022/06/27 07:35:11;;;;;;;;;5.75;4.00;;;;;19.79;88.92;101407.91;5096497;27;45280;-80
2022/06/27 07:37:47;;;;;;;;;3.00;3.00;;;;;19.82;89.53;101407.06;5098172;27;45292;-80
2022/06/27 07:40:18;;;;;;;;;4.75;2.00;;;;;19.84;88.74;101392.22;5090916;27;46336;-86
2022/06/27 07:42:44;;;;;;;;;2.50;2.50;;;;;19.92;89.53;101393.28;5086491;27;45740;-84
2022/06/27 07:45:13;;;;;;;;;5.00;2.00;;;;;19.97;89.70;101386.31;5095780;27;45409;-83
2022/06/27 07:47:39;;;;;;;;;4.00;3.00;;;;;20.08;88.48;101392.63;5082794;27;45588;-89
2022/06/27 07:50:05;;;;;;;;;2.75;2.75;;;;;20.15;86.75;101392.69;5089202;27;45279;-89
2022/06/27 07:53:11;;;;;;;;;2.25;2.25;;;;;20.18;85.38;101395.38;5093830;27;45632;-81
2022/06/27 07:55:19;;;;;;;;;1.00;1.00;;;;;20.22;85.18;101405.97;5104982;27;45204;-83
2022/06/27 07:57:47;;;;;;;;;2.50;2.50;;;;;20.31;85.10;101404.31;5072738;27;45594;-80
2022/06/27 08:00:14;;;;;;;;;3.75;2.00;;;;;20.45;84.02;101409.78;5075876;27;46274;-90
2022/06/27 08:02:41;;;;;;;;;4.00;2.00;;;;;20.53;83.13;101414.28;5072566;27;45921;-80
2022/06/27 08:05:07;;;;;;;;;4.25;2.00;;;;;20.60;81.43;101411.75;5067050;27;45713;-79
2022/06/27 08:07:33;;;;;;;;;4.00;3.50;;;;;20.55;81.52;101415.19;5068310;27;45427;-86
2022/06/27 08:09:59;;;;;;;;;2.25;2.25;;;;;20.51;81.37;101413.41;5074349;27;45463;-91
2022/06/27 08:12:25;;;;;;;;;2.25;2.25;;;;;20.47;81.67;101402.78;5065859;28;45378;-84
2022/06/27 08:14:51;;;;;;;;;2.25;1.75;;;;;20.54;82.37;101418.69;5064020;27;45535;-87
2022/06/27 08:17:18;;;;;;;;;3.00;3.00;;;;;20.59;81.01;101421.38;5063007;28;45307;-86
2022/06/27 08:19:44;;;;;;;;;2.00;2.00;;;;;20.57;79.50;101431.00;5076272;27;47043;-89
2022/06/27 08:22:11;;;;;;;;;3.00;3.00;;;;;20.43;80.22;101428.16;5097971;27;45205;-89
2022/06/27 08:24:37;;;;;;;;;3.25;2.75;;;;;20.25;81.44;101424.44;5099150;27;45371;-91
2022/06/27 08:27:04;;;;;;;;;2.00;2.00;;;;;20.22;82.85;101455.06;5096491;27;45261;-88
2022/06/27 08:29:32;;;;;;;;;1.00;1.00;;;;;20.13;83.74;101470.69;5095820;27;46036;-90
2022/06/27 08:31:58;;;;;;;;;2.00;2.00;;;;;19.95;84.41;101483.56;5093533;27;45866;-82
2022/06/27 08:34:23;;;;;;;;;3.00;3.00;;;;;19.92;90.92;101495.75;5079021;27;45548;-78
2022/06/27 08:36:50;;;;;;;;;2.00;2.00;;;;;19.79;96.52;101474.50;5087702;27;45335;-79
2022/06/27 08:39:16;;;;;;;;;2.00;2.00;;;;;19.73;99.47;101465.63;5078761;27;45498;-82
2022/06/27 08:41:45;;;;;;;;;2.00;2.00;;;;;19.68;100.00;101443.63;5034364;28;45272;-79
2022/06/27 08:44:11;;;;;;;;;3.00;2.00;;;;;19.71;100.00;101434.03;5084250;27;45371;-77
2022/06/27 08:46:36;;;;;;;;;3.00;3.00;;;;;19.79;100.00;101423.66;5081495;27;45268;-76
2022/06/27 08:49:05;;;;;;;;;2.50;2.00;;;;;19.84;100.00;101431.63;5075634;27;45276;-77
2022/06/27 08:51:33;;;;;;;;;4.00;4.00;;;;;19.83;100.00;101422.88;5081843;27;45439;-83
2022/06/27 08:54:00;;;;;;;;;2.25;2.25;;;;;19.82;100.00;101434.25;5054529;28;45450;-82
2022/06/27 08:56:29;;;;;;;;;3.75;3.00;;;;;19.79;100.00;101426.28;5055676;28;45408;-83
2022/06/27 08:58:58;;;;;;;;;3.00;2.00;;;;;19.76;100.00;101421.00;5076166;28;46149;-82
2022/06/27 09:01:27;;;;;;;;;3.75;3.00;;;;;19.77;100.00;101417.50;5076709;28;45410;-84
2022/06/27 09:04:01;;;;;;;;;3.50;2.50;;;;;19.80;100.00;101422.81;5078503;27;45430;-81
2022/06/27 09:06:32;;;;;;;;;2.00;2.00;;;;;19.87;100.00;101416.81;5080375;27;45311;-82
2022/06/27 09:09:05;;;;;;;;;3.00;3.00;;;;;19.97;100.00;101428.38;5079883;27;46330;-85
2022/06/27 09:11:33;;;;;;;;;3.50;3.00;;;;;19.89;100.00;101437.88;5094307;27;45721;-80
2022/06/27 09:14:00;;;;;;;;;4.00;2.00;;;;;19.82;100.00;101435.97;5081429;27;45507;-80
2022/06/27 09:16:27;;;;;;;;;2.00;2.00;;;;;19.74;100.00;101436.72;5078613;27;45406;-81
2022/06/27 09:18:53;;;;;;;;;2.25;1.00;;;;;19.64;100.00;101432.19;5088103;27;45998;-82
2022/06/27 09:21:19;;;;;;;;;2.00;2.00;;;;;19.65;99.82;101436.56;5086518;27;45233;-83
2022/06/27 09:23:55;;;;;;;;;2.75;2.75;;;;;19.64;100.00;101426.94;5087548;27;45414;-81
2022/06/27 09:26:27;;;;;;;;;2.00;2.00;;;;;19.62;100.00;101428.63;5080811;27;45330;-79
2022/06/27 09:29:07;;;;;;;;;3.00;3.00;;;;;19.61;100.00;101429.50;5092039;27;46484;-84
2022/06/27 09:31:36;;;;;;;;;2.25;2.00;;;;;19.54;99.10;101419.75;5079462;27;45912;-84
2022/06/27 09:34:14;;;;;;;;;2.50;1.75;;;;;19.58;99.86;101430.31;5079183;27;45416;-83
2022/06/27 09:36:51;;;;;;;;;3.50;2.00;;;;;19.60;100.00;101431.25;5084165;27;45263;-84
2022/06/27 09:39:18;;;;;;;;;2.00;2.00;;;;;19.62;100.00;101426.00;5089690;27;45499;-81
2022/06/27 09:41:50;;;;;;;;;3.00;3.00;;;;;19.64;100.00;101434.81;5082084;27;45848;-82
2022/06/27 09:44:21;;;;;;;;;2.00;2.00;;;;;19.67;99.66;101441.84;5073685;27;45442;-84
2022/06/27 09:46:54;;;;;;;;;3.25;2.00;;;;;19.66;95.25;101433.09;5089114;27;45505;-86
2022/06/27 09:49:23;;;;;;;;;1.50;1.50;;;;;19.63;94.31;101433.03;5068678;28;45420;-90
2022/06/27 09:51:50;;;;;;;;;2.00;2.00;;;;;19.64;91.67;101440.97;5084489;27;46447;-86
2022/06/27 09:54:20;;;;;;;;;1.00;1.00;;;;;19.66;91.21;101443.59;5086727;27;45184;-88
2022/06/27 09:56:48;;;;;;;;;4.00;2.00;;;;;19.68;91.52;101441.91;5109984;27;45377;-83
2022/06/27 09:59:14;;;;;;;;;1.50;1.50;;;;;19.67;89.70;101427.00;5108075;27;45248;-80
2022/06/27 10:01:41;;;;;;;;;3.25;2.00;;;;;19.72;88.34;101438.44;5099145;27;45402;-89
2022/06/27 10:04:08;;;;;;;;;1.00;1.00;;;;;19.86;87.61;101436.09;5091662;28;45203;-87
2022/06/27 10:06:36;;;;;;;;;2.00;1.25;;;;;19.89;85.71;101430.88;5088539;27;45704;-84
2022/06/27 10:09:08;;;;;;;;;2.00;2.00;;;;;19.95;83.31;101432.72;5087793;27;46248;-84
2022/06/27 10:11:36;;;;;;;;;1.00;1.00;;;;;19.93;77.14;101429.19;5103073;27;45663;-84
2022/06/27 10:14:22;;;;;;;;;2.25;1.50;;;;;19.95;73.05;101440.59;5092613;27;45300;-84
2022/06/27 10:16:54;;;;;;;;;0.00;0.00;;;;;19.98;72.23;101432.78;5079124;28;45322;-84
2022/06/27 10:19:21;;;;;;;;;3.00;1.00;;;;;19.98;72.43;101429.28;5077531;27;47503;-84
2022/06/27 10:21:48;;;;;;;;;3.50;0.50;;;;;20.06;72.58;101425.03;5066645;28;45748;-81
2022/06/27 10:24:21;;;;;;;;;0.00;0.00;;;;;20.13;64.72;101441.78;5074687;27;45520;-78
2022/06/27 10:26:49;;;;;;;;;0.00;0.00;;;;;20.18;63.35;101435.72;5067230;27;45549;-82
2022/06/27 10:29:28;;;;;;;;;0.00;0.00;;;;;20.25;61.35;101436.66;5058304;28;45375;-77
2022/06/27 10:31:55;;;;;;;;;0.25;0.25;;;;;20.26;66.53;101441.97;5060690;28;45439;-77
2022/06/27 10:34:49;;;;;;;;;0.50;0.50;;;;;20.31;65.46;101447.28;5085184;27;45432;-81
2022/06/27 10:37:26;;;;;;;;;1.00;0.50;;;;;20.35;65.41;101433.34;5021057;28;45661;-80
2022/06/27 10:39:54;;;;;;;;;0.00;0.00;;;;;20.34;62.75;101435.94;5062305;28;45454;-81
2022/06/27 10:42:44;;;;;;;;;1.00;1.00;;;;;20.45;65.50;101446.63;5085948;27;45647;-79
2022/06/27 10:45:28;;;;;;;;;2.00;1.00;;;;;20.54;66.11;101437.09;5097643;27;45364;-81
2022/06/27 10:47:56;;;;;;;;;1.25;1.25;;;;;20.67;65.63;101443.44;5090002;27;45543;-82
2022/06/27 10:50:24;;;;;;;;;3.50;1.00;;;;;20.73;65.47;101435.59;5083947;27;45504;-82
2022/06/27 10:52:51;;;;;;;;;2.00;2.00;;;;;20.83;65.90;101436.66;5075070;27;45253;-79
2022/06/27 10:55:26;;;;;;;;;2.00;2.00;;;;;20.87;63.76;101429.66;5072090;27;45252;-82
2022/06/27 10:57:55;;;;;;;;;1.00;1.00;;;;;20.92;62.99;101446.38;5080055;27;45589;-81
2022/06/27 11:00:38;;;;;;;;;1.00;1.00;;;;;20.87;61.43;101427.91;5076067;28;46332;-79
2022/06/27 11:03:04;;;;;;;;;1.00;1.00;;;;;21.05;62.23;101447.44;5081598;27;45756;-83
2022/06/27 11:05:52;;;;;;;;;3.00;2.00;;;;;21.20;60.26;101436.19;5063721;28;45444;-84
2022/06/27 11:08:22;;;;;;;;;1.75;1.75;;;;;21.22;58.33;101458.13;5070411;27;45344;-82
2022/06/27 11:10:48;;;;;;;;;1.50;1.50;;;;;21.29;58.52;101440.63;5066579;28;45478;-81
2022/06/27 11:13:36;;;;;;;;;1.00;1.00;;;;;21.38;54.97;101447.75;5078980;27;45719;-82
2022/06/27 11:16:07;;;;;;;;;1.00;0.00;;;;;21.36;54.32;101426.69;5082870;27;45260;-83
2022/06/27 11:18:43;;;;;;;;;1.00;1.00;;;;;21.34;54.15;101431.06;5088334;27;45537;-84
2022/06/27 11:21:11;;;;;;;;;1.00;1.00;;;;;21.36;54.27;101420.50;5065799;27;47196;-82
2022/06/27 11:23:58;;;;;;;;;2.00;2.00;;;;;21.41;54.56;101432.00;5089377;27;45640;-85
2022/06/27 11:26:36;;;;;;;;;1.00;1.00;;;;;21.44;52.49;101442.53;5087192;27;45510;-84
2022/06/27 11:32:00;;;;;;;;;1.00;1.00;;;;;21.42;54.47;101420.59;5059203;27;45411;-85
2022/06/27 11:34:30;;;;;;;;;0.00;0.00;;;;;21.41;53.70;101429.38;5057294;28;45668;-86